sensor_id;sensor_type;location;lat;lon;timestamp;temperature;humidity
43320;DHT22;28914;48.722;9.332;2023-02-28T00:01:12;2.50;53.80
43320;DHT22;28914;48.722;9.332;2023-02-28T00:06:32;2.50;53.90
43320;DHT22;28914;48.722;9.332;2023-02-28T00:11:51;2.40;54.00
43320;DHT22;28914;48.722;9.332;2023-02-28T00:17:10;2.40;54.70
43320;DHT22;28914;48.722;9.332;2023-02-28T00:22:30;2.30;54.30
43320;DHT22;28914;48.722;9.332;2023-02-28T00:27:49;2.30;54.30
43320;DHT22;28914;48.722;9.332;2023-02-28T00:33:08;2.30;54.30
43320;DHT22;28914;48.722;9.332;2023-02-28T00:38:27;2.30;54.40
43320;DHT22;28914;48.722;9.332;2023-02-28T00:43:46;2.20;54.40
43320;DHT22;28914;48.722;9.332;2023-02-28T00:49:06;2.20;54.40
43320;DHT22;28914;48.722;9.332;2023-02-28T00:54:25;2.20;54.50
43320;DHT22;28914;48.722;9.332;2023-02-28T00:59:44;2.20;54.80
43320;DHT22;28914;48.722;9.332;2023-02-28T01:05:04;2.20;55.50
43320;DHT22;28914;48.722;9.332;2023-02-28T01:10:25;2.20;55.10
43320;DHT22;28914;48.722;9.332;2023-02-28T01:15:51;2.20;55.30
43320;DHT22;28914;48.722;9.332;2023-02-28T01:21:13;2.20;55.50
43320;DHT22;28914;48.722;9.332;2023-02-28T01:26:33;2.20;56.00
43320;DHT22;28914;48.722;9.332;2023-02-28T01:31:52;2.20;56.30
43320;DHT22;28914;48.722;9.332;2023-02-28T01:37:11;2.20;56.90
43320;DHT22;28914;48.722;9.332;2023-02-28T01:42:30;2.20;56.20
43320;DHT22;28914;48.722;9.332;2023-02-28T01:47:54;2.20;56.10
43320;DHT22;28914;48.722;9.332;2023-02-28T01:53:18;2.20;56.20
43320;DHT22;28914;48.722;9.332;2023-02-28T01:58:38;2.30;56.30
43320;DHT22;28914;48.722;9.332;2023-02-28T02:04:01;2.20;56.20
43320;DHT22;28914;48.722;9.332;2023-02-28T02:09:21;2.30;56.30
43320;DHT22;28914;48.722;9.332;2023-02-28T02:15:16;2.20;56.40
43320;DHT22;28914;48.722;9.332;2023-02-28T02:26:14;2.20;56.80
43320;DHT22;28914;48.722;9.332;2023-02-28T02:37:16;2.30;57.00
43320;DHT22;28914;48.722;9.332;2023-02-28T02:42:46;2.30;57.10
43320;DHT22;28914;48.722;9.332;2023-02-28T02:48:09;2.40;57.30
43320;DHT22;28914;48.722;9.332;2023-02-28T02:53:38;2.40;57.40
43320;DHT22;28914;48.722;9.332;2023-02-28T02:59:03;2.50;57.60
43320;DHT22;28914;48.722;9.332;2023-02-28T03:04:25;2.50;57.70
43320;DHT22;28914;48.722;9.332;2023-02-28T03:09:56;2.50;57.70
43320;DHT22;28914;48.722;9.332;2023-02-28T03:15:32;2.50;57.70
43320;DHT22;28914;48.722;9.332;2023-02-28T03:21:06;2.50;57.80
43320;DHT22;28914;48.722;9.332;2023-02-28T03:26:27;2.50;57.90
43320;DHT22;28914;48.722;9.332;2023-02-28T03:31:48;2.50;58.00
43320;DHT22;28914;48.722;9.332;2023-02-28T03:37:16;2.60;58.30
43320;DHT22;28914;48.722;9.332;2023-02-28T03:42:40;2.70;58.60
43320;DHT22;28914;48.722;9.332;2023-02-28T03:48:50;2.60;58.50
43320;DHT22;28914;48.722;9.332;2023-02-28T03:53:54;2.70;58.60
43320;DHT22;28914;48.722;9.332;2023-02-28T03:59:27;2.80;58.50
43320;DHT22;28914;48.722;9.332;2023-02-28T04:04:47;2.80;58.40
43320;DHT22;28914;48.722;9.332;2023-02-28T04:10:08;2.90;58.70
43320;DHT22;28914;48.722;9.332;2023-02-28T04:15:27;2.90;58.70
43320;DHT22;28914;48.722;9.332;2023-02-28T04:20:47;3.00;58.60
43320;DHT22;28914;48.722;9.332;2023-02-28T04:26:06;3.00;58.70
43320;DHT22;28914;48.722;9.332;2023-02-28T04:31:26;3.10;58.70
43320;DHT22;28914;48.722;9.332;2023-02-28T04:36:44;3.10;58.60
43320;DHT22;28914;48.722;9.332;2023-02-28T04:42:04;3.20;58.40
43320;DHT22;28914;48.722;9.332;2023-02-28T04:47:24;3.30;58.60
43320;DHT22;28914;48.722;9.332;2023-02-28T04:52:43;3.30;58.60
43320;DHT22;28914;48.722;9.332;2023-02-28T04:58:03;3.30;58.60
43320;DHT22;28914;48.722;9.332;2023-02-28T05:03:22;3.40;58.90
43320;DHT22;28914;48.722;9.332;2023-02-28T05:08:42;3.30;58.70
43320;DHT22;28914;48.722;9.332;2023-02-28T05:14:03;3.30;58.60
43320;DHT22;28914;48.722;9.332;2023-02-28T05:19:23;3.40;58.80
43320;DHT22;28914;48.722;9.332;2023-02-28T05:24:42;3.40;58.70
43320;DHT22;28914;48.722;9.332;2023-02-28T05:30:01;3.40;58.70
43320;DHT22;28914;48.722;9.332;2023-02-28T05:35:22;3.50;59.30
43320;DHT22;28914;48.722;9.332;2023-02-28T05:40:41;3.50;58.60
43320;DHT22;28914;48.722;9.332;2023-02-28T05:46:08;3.60;58.70
43320;DHT22;28914;48.722;9.332;2023-02-28T05:51:28;3.60;58.70
43320;DHT22;28914;48.722;9.332;2023-02-28T05:56:48;3.60;58.70
43320;DHT22;28914;48.722;9.332;2023-02-28T06:02:13;3.60;58.80
43320;DHT22;28914;48.722;9.332;2023-02-28T06:07:32;3.60;58.80
43320;DHT22;28914;48.722;9.332;2023-02-28T06:12:51;3.60;58.90
43320;DHT22;28914;48.722;9.332;2023-02-28T06:18:11;3.60;58.80
43320;DHT22;28914;48.722;9.332;2023-02-28T06:23:30;3.60;58.80
43320;DHT22;28914;48.722;9.332;2023-02-28T06:28:49;3.60;58.90
43320;DHT22;28914;48.722;9.332;2023-02-28T06:34:08;3.70;58.90
43320;DHT22;28914;48.722;9.332;2023-02-28T06:39:29;3.70;59.20
43320;DHT22;28914;48.722;9.332;2023-02-28T06:44:48;3.60;59.10
43320;DHT22;28914;48.722;9.332;2023-02-28T06:50:10;3.70;59.00
43320;DHT22;28914;48.722;9.332;2023-02-28T06:55:29;3.70;59.60
43320;DHT22;28914;48.722;9.332;2023-02-28T07:00:51;3.80;58.90
43320;DHT22;28914;48.722;9.332;2023-02-28T07:06:10;3.80;58.90
43320;DHT22;28914;48.722;9.332;2023-02-28T07:11:30;3.80;58.90
43320;DHT22;28914;48.722;9.332;2023-02-28T07:16:49;3.90;58.90
43320;DHT22;28914;48.722;9.332;2023-02-28T07:22:09;3.90;58.90
43320;DHT22;28914;48.722;9.332;2023-02-28T07:27:28;3.90;58.80
43320;DHT22;28914;48.722;9.332;2023-02-28T07:32:48;4.00;58.70
43320;DHT22;28914;48.722;9.332;2023-02-28T07:38:07;4.00;58.80
43320;DHT22;28914;48.722;9.332;2023-02-28T07:43:26;4.00;58.70
43320;DHT22;28914;48.722;9.332;2023-02-28T07:48:46;4.10;58.70
43320;DHT22;28914;48.722;9.332;2023-02-28T07:54:05;4.10;58.70
43320;DHT22;28914;48.722;9.332;2023-02-28T07:59:24;4.10;58.50
43320;DHT22;28914;48.722;9.332;2023-02-28T08:04:43;4.20;58.60
43320;DHT22;28914;48.722;9.332;2023-02-28T08:10:03;4.30;58.50
43320;DHT22;28914;48.722;9.332;2023-02-28T08:15:24;4.40;58.50
43320;DHT22;28914;48.722;9.332;2023-02-28T08:20:43;4.50;58.50
43320;DHT22;28914;48.722;9.332;2023-02-28T08:26:02;4.60;58.30
43320;DHT22;28914;48.722;9.332;2023-02-28T08:31:22;4.70;58.20
43320;DHT22;28914;48.722;9.332;2023-02-28T08:36:42;4.80;58.10
43320;DHT22;28914;48.722;9.332;2023-02-28T08:42:04;4.90;58.10
43320;DHT22;28914;48.722;9.332;2023-02-28T08:47:24;4.90;58.00
43320;DHT22;28914;48.722;9.332;2023-02-28T08:52:43;5.00;57.90
43320;DHT22;28914;48.722;9.332;2023-02-28T08:58:03;5.10;57.70
43320;DHT22;28914;48.722;9.332;2023-02-28T09:03:23;5.20;57.60
43320;DHT22;28914;48.722;9.332;2023-02-28T09:08:42;5.30;57.50
43320;DHT22;28914;48.722;9.332;2023-02-28T09:14:02;5.30;57.50
43320;DHT22;28914;48.722;9.332;2023-02-28T09:19:22;5.40;57.30
43320;DHT22;28914;48.722;9.332;2023-02-28T09:24:41;5.50;57.30
43320;DHT22;28914;48.722;9.332;2023-02-28T09:30:01;5.60;57.30
43320;DHT22;28914;48.722;9.332;2023-02-28T09:35:24;5.80;57.10
43320;DHT22;28914;48.722;9.332;2023-02-28T09:40:50;5.90;56.80
43320;DHT22;28914;48.722;9.332;2023-02-28T09:46:29;6.00;56.60
43320;DHT22;28914;48.722;9.332;2023-02-28T09:52:02;6.10;55.80
43320;DHT22;28914;48.722;9.332;2023-02-28T09:57:39;6.00;55.10
43320;DHT22;28914;48.722;9.332;2023-02-28T10:03:25;6.00;55.40
43320;DHT22;28914;48.722;9.332;2023-02-28T10:14:23;6.10;54.80
43320;DHT22;28914;48.722;9.332;2023-02-28T10:19:59;6.10;54.60
43320;DHT22;28914;48.722;9.332;2023-02-28T10:25:27;6.20;55.10
43320;DHT22;28914;48.722;9.332;2023-02-28T10:30:52;6.40;54.40
43320;DHT22;28914;48.722;9.332;2023-02-28T10:36:16;6.70;54.20
43320;DHT22;28914;48.722;9.332;2023-02-28T10:41:42;7.10;54.60
43320;DHT22;28914;48.722;9.332;2023-02-28T10:47:02;7.70;53.60
43320;DHT22;28914;48.722;9.332;2023-02-28T10:52:37;8.20;52.30
43320;DHT22;28914;48.722;9.332;2023-02-28T10:57:57;9.00;51.30
43320;DHT22;28914;48.722;9.332;2023-02-28T11:03:25;9.80;50.40
43320;DHT22;28914;48.722;9.332;2023-02-28T11:08:54;10.70;48.90
43320;DHT22;28914;48.722;9.332;2023-02-28T11:14:22;12.00;49.90
43320;DHT22;28914;48.722;9.332;2023-02-28T11:19:48;13.60;47.30
43320;DHT22;28914;48.722;9.332;2023-02-28T11:25:16;14.80;43.90
43320;DHT22;28914;48.722;9.332;2023-02-28T11:30:40;16.20;43.90
43320;DHT22;28914;48.722;9.332;2023-02-28T11:42:07;18.80;39.00
43320;DHT22;28914;48.722;9.332;2023-02-28T11:53:42;19.30;35.40
43320;DHT22;28914;48.722;9.332;2023-02-28T11:59:35;19.70;38.90
43320;DHT22;28914;48.722;9.332;2023-02-28T12:05:17;19.90;37.50
43320;DHT22;28914;48.722;9.332;2023-02-28T12:27:23;16.80;36.00
43320;DHT22;28914;48.722;9.332;2023-02-28T12:32:49;15.90;36.70
43320;DHT22;28914;48.722;9.332;2023-02-28T12:38:20;15.10;38.50
43320;DHT22;28914;48.722;9.332;2023-02-28T12:43:46;14.20;38.20
43320;DHT22;28914;48.722;9.332;2023-02-28T12:49:12;13.20;39.20
43320;DHT22;28914;48.722;9.332;2023-02-28T12:55:07;12.50;40.60
43320;DHT22;28914;48.722;9.332;2023-02-28T13:00:34;11.90;41.90
43320;DHT22;28914;48.722;9.332;2023-02-28T13:06:18;11.60;42.70
43320;DHT22;28914;48.722;9.332;2023-02-28T13:11:42;11.30;43.10
43320;DHT22;28914;48.722;9.332;2023-02-28T13:17:03;11.10;43.50
43320;DHT22;28914;48.722;9.332;2023-02-28T13:27:55;10.50;44.40
43320;DHT22;28914;48.722;9.332;2023-02-28T13:49:29;10.30;45.60
43320;DHT22;28914;48.722;9.332;2023-02-28T14:06:16;10.30;46.20
43320;DHT22;28914;48.722;9.332;2023-02-28T14:11:39;10.30;46.10
43320;DHT22;28914;48.722;9.332;2023-02-28T14:16:59;10.30;46.20
43320;DHT22;28914;48.722;9.332;2023-02-28T14:33:57;10.40;46.30
43320;DHT22;28914;48.722;9.332;2023-02-28T14:39:21;10.40;46.40
43320;DHT22;28914;48.722;9.332;2023-02-28T14:44:41;10.40;46.30
43320;DHT22;28914;48.722;9.332;2023-02-28T14:50:00;10.40;46.30
43320;DHT22;28914;48.722;9.332;2023-02-28T14:55:36;10.50;46.50
43320;DHT22;28914;48.722;9.332;2023-02-28T15:01:00;10.40;46.20
43320;DHT22;28914;48.722;9.332;2023-02-28T15:06:20;10.30;46.30
43320;DHT22;28914;48.722;9.332;2023-02-28T15:11:39;10.20;46.30
43320;DHT22;28914;48.722;9.332;2023-02-28T15:17:07;10.10;46.50
43320;DHT22;28914;48.722;9.332;2023-02-28T15:22:35;9.90;46.60
43320;DHT22;28914;48.722;9.332;2023-02-28T15:27:56;9.80;46.80
43320;DHT22;28914;48.722;9.332;2023-02-28T15:38:36;9.60;47.00
43320;DHT22;28914;48.722;9.332;2023-02-28T15:44:24;9.50;47.20
43320;DHT22;28914;48.722;9.332;2023-02-28T15:49:53;9.50;47.50
43320;DHT22;28914;48.722;9.332;2023-02-28T15:55:20;9.40;47.50
43320;DHT22;28914;48.722;9.332;2023-02-28T16:00:43;9.40;47.60
43320;DHT22;28914;48.722;9.332;2023-02-28T16:06:09;9.30;47.90
43320;DHT22;28914;48.722;9.332;2023-02-28T16:11:49;9.10;48.00
43320;DHT22;28914;48.722;9.332;2023-02-28T16:17:29;8.90;48.30
43320;DHT22;28914;48.722;9.332;2023-02-28T16:22:50;8.80;48.60
43320;DHT22;28914;48.722;9.332;2023-02-28T16:28:18;8.70;48.60
43320;DHT22;28914;48.722;9.332;2023-02-28T16:33:38;8.70;48.80
43320;DHT22;28914;48.722;9.332;2023-02-28T16:38:57;8.60;48.90
43320;DHT22;28914;48.722;9.332;2023-02-28T16:44:35;8.40;48.90
43320;DHT22;28914;48.722;9.332;2023-02-28T16:49:54;8.40;49.10
43320;DHT22;28914;48.722;9.332;2023-02-28T16:55:14;8.20;49.80
43320;DHT22;28914;48.722;9.332;2023-02-28T17:00:33;8.10;49.30
43320;DHT22;28914;48.722;9.332;2023-02-28T17:05:52;8.10;49.50
43320;DHT22;28914;48.722;9.332;2023-02-28T17:11:12;7.90;49.60
43320;DHT22;28914;48.722;9.332;2023-02-28T17:16:33;7.70;49.80
43320;DHT22;28914;48.722;9.332;2023-02-28T17:21:52;7.60;49.90
43320;DHT22;28914;48.722;9.332;2023-02-28T17:27:12;7.50;50.10
43320;DHT22;28914;48.722;9.332;2023-02-28T17:32:31;7.40;50.20
43320;DHT22;28914;48.722;9.332;2023-02-28T17:37:51;7.20;50.40
43320;DHT22;28914;48.722;9.332;2023-02-28T17:43:10;7.20;50.60
43320;DHT22;28914;48.722;9.332;2023-02-28T17:48:29;7.00;50.50
43320;DHT22;28914;48.722;9.332;2023-02-28T17:53:48;6.90;50.60
43320;DHT22;28914;48.722;9.332;2023-02-28T17:59:09;6.90;50.90
43320;DHT22;28914;48.722;9.332;2023-02-28T18:04:28;6.70;51.20
43320;DHT22;28914;48.722;9.332;2023-02-28T18:09:48;6.60;51.30
43320;DHT22;28914;48.722;9.332;2023-02-28T18:15:07;6.50;51.40
43320;DHT22;28914;48.722;9.332;2023-02-28T18:20:27;6.40;51.70
43320;DHT22;28914;48.722;9.332;2023-02-28T18:25:47;6.30;51.90
43320;DHT22;28914;48.722;9.332;2023-02-28T18:31:07;6.20;51.90
43320;DHT22;28914;48.722;9.332;2023-02-28T18:36:27;6.10;52.60
43320;DHT22;28914;48.722;9.332;2023-02-28T18:41:46;6.00;52.30
43320;DHT22;28914;48.722;9.332;2023-02-28T18:47:06;6.00;52.60
43320;DHT22;28914;48.722;9.332;2023-02-28T18:52:25;5.80;52.80
43320;DHT22;28914;48.722;9.332;2023-02-28T18:57:45;5.60;52.90
43320;DHT22;28914;48.722;9.332;2023-02-28T19:03:04;5.40;53.00
43320;DHT22;28914;48.722;9.332;2023-02-28T19:08:24;5.30;53.30
43320;DHT22;28914;48.722;9.332;2023-02-28T19:13:44;5.20;53.40
43320;DHT22;28914;48.722;9.332;2023-02-28T19:19:04;5.00;53.70
43320;DHT22;28914;48.722;9.332;2023-02-28T19:24:23;4.90;53.90
43320;DHT22;28914;48.722;9.332;2023-02-28T19:29:42;4.70;54.80
43320;DHT22;28914;48.722;9.332;2023-02-28T19:35:01;4.50;54.50
43320;DHT22;28914;48.722;9.332;2023-02-28T19:40:21;4.40;54.90
43320;DHT22;28914;48.722;9.332;2023-02-28T19:45:40;4.30;55.00
43320;DHT22;28914;48.722;9.332;2023-02-28T19:51:10;4.20;55.10
43320;DHT22;28914;48.722;9.332;2023-02-28T19:56:30;4.00;55.60
43320;DHT22;28914;48.722;9.332;2023-02-28T20:01:50;3.90;55.60
43320;DHT22;28914;48.722;9.332;2023-02-28T20:07:12;3.80;56.00
43320;DHT22;28914;48.722;9.332;2023-02-28T20:12:31;3.70;56.20
43320;DHT22;28914;48.722;9.332;2023-02-28T20:17:50;3.70;56.50
43320;DHT22;28914;48.722;9.332;2023-02-28T20:23:10;3.60;56.50
43320;DHT22;28914;48.722;9.332;2023-02-28T20:28:29;3.50;56.60
43320;DHT22;28914;48.722;9.332;2023-02-28T20:33:49;3.50;57.30
43320;DHT22;28914;48.722;9.332;2023-02-28T20:39:09;3.40;57.50
43320;DHT22;28914;48.722;9.332;2023-02-28T20:44:28;3.30;57.40
43320;DHT22;28914;48.722;9.332;2023-02-28T20:49:47;3.30;57.60
43320;DHT22;28914;48.722;9.332;2023-02-28T20:55:07;3.20;57.60
43320;DHT22;28914;48.722;9.332;2023-02-28T21:00:26;3.20;58.20
43320;DHT22;28914;48.722;9.332;2023-02-28T21:05:45;3.20;58.50
43320;DHT22;28914;48.722;9.332;2023-02-28T21:11:16;3.10;59.30
43320;DHT22;28914;48.722;9.332;2023-02-28T21:16:35;3.10;58.70
43320;DHT22;28914;48.722;9.332;2023-02-28T21:21:55;3.10;58.80
43320;DHT22;28914;48.722;9.332;2023-02-28T21:27:14;3.10;59.00
43320;DHT22;28914;48.722;9.332;2023-02-28T21:32:34;3.00;59.20
43320;DHT22;28914;48.722;9.332;2023-02-28T21:37:53;3.10;59.40
43320;DHT22;28914;48.722;9.332;2023-02-28T21:43:13;3.00;59.80
43320;DHT22;28914;48.722;9.332;2023-02-28T21:48:32;3.00;59.80
43320;DHT22;28914;48.722;9.332;2023-02-28T21:53:52;3.00;59.50
43320;DHT22;28914;48.722;9.332;2023-02-28T21:59:12;3.00;59.50
43320;DHT22;28914;48.722;9.332;2023-02-28T22:04:31;2.90;59.40
43320;DHT22;28914;48.722;9.332;2023-02-28T22:09:51;2.90;59.50
43320;DHT22;28914;48.722;9.332;2023-02-28T22:15:10;2.90;59.50
43320;DHT22;28914;48.722;9.332;2023-02-28T22:20:30;2.80;59.60
43320;DHT22;28914;48.722;9.332;2023-02-28T22:25:49;2.70;59.70
43320;DHT22;28914;48.722;9.332;2023-02-28T22:31:32;2.70;59.90
43320;DHT22;28914;48.722;9.332;2023-02-28T22:36:51;2.60;59.80
43320;DHT22;28914;48.722;9.332;2023-02-28T22:42:12;2.60;59.70
43320;DHT22;28914;48.722;9.332;2023-02-28T22:47:31;2.50;59.80
43320;DHT22;28914;48.722;9.332;2023-02-28T22:52:51;2.40;60.00
43320;DHT22;28914;48.722;9.332;2023-02-28T22:58:10;2.20;60.00
43320;DHT22;28914;48.722;9.332;2023-02-28T23:03:30;2.30;60.30
43320;DHT22;28914;48.722;9.332;2023-02-28T23:08:51;2.30;60.60
43320;DHT22;28914;48.722;9.332;2023-02-28T23:14:13;2.20;60.60
43320;DHT22;28914;48.722;9.332;2023-02-28T23:19:32;2.20;60.90
43320;DHT22;28914;48.722;9.332;2023-02-28T23:24:51;2.20;61.10
43320;DHT22;28914;48.722;9.332;2023-02-28T23:30:13;2.10;61.10
43320;DHT22;28914;48.722;9.332;2023-02-28T23:35:33;2.10;61.30
43320;DHT22;28914;48.722;9.332;2023-02-28T23:40:52;2.00;61.50
43320;DHT22;28914;48.722;9.332;2023-02-28T23:46:12;2.00;61.70
43320;DHT22;28914;48.722;9.332;2023-02-28T23:51:31;1.90;62.10
43320;DHT22;28914;48.722;9.332;2023-02-28T23:56:51;1.90;62.50
